sensor_id;sensor_type;location;lat;lon;timestamp;pressure;altitude;pressure_sealevel;temperature;humidity
35307;BME280;21420;52.196;21.416;2023-02-13T00:00:33;101907.59;;;3.28;66.40
35307;BME280;21420;52.196;21.416;2023-02-13T00:03:01;101906.56;;;3.32;66.40
35307;BME280;21420;52.196;21.416;2023-02-13T00:05:31;101905.58;;;3.35;66.52
35307;BME280;21420;52.196;21.416;2023-02-13T00:07:58;101900.81;;;3.39;66.46
35307;BME280;21420;52.196;21.416;2023-02-13T00:10:25;101897.08;;;3.43;66.44
35307;BME280;21420;52.196;21.416;2023-02-13T00:12:52;101900.73;;;3.46;66.62
35307;BME280;21420;52.196;21.416;2023-02-13T00:15:19;101898.16;;;3.48;66.64
35307;BME280;21420;52.196;21.416;2023-02-13T00:17:46;101898.98;;;3.52;66.55
35307;BME280;21420;52.196;21.416;2023-02-13T00:20:13;101904.73;;;3.54;66.71
35307;BME280;21420;52.196;21.416;2023-02-13T00:22:40;101904.27;;;3.56;66.72
35307;BME280;21420;52.196;21.416;2023-02-13T00:25:07;101901.91;;;3.57;66.76
35307;BME280;21420;52.196;21.416;2023-02-13T00:27:35;101901.12;;;3.59;66.80
35307;BME280;21420;52.196;21.416;2023-02-13T00:30:03;101895.63;;;3.61;66.82
35307;BME280;21420;52.196;21.416;2023-02-13T00:32:30;101897.05;;;3.62;66.93
35307;BME280;21420;52.196;21.416;2023-02-13T00:34:57;101898.67;;;3.63;66.89
35307;BME280;21420;52.196;21.416;2023-02-13T00:37:25;101901.61;;;3.63;66.80
35307;BME280;21420;52.196;21.416;2023-02-13T00:39:52;101898.95;;;3.63;66.81
35307;BME280;21420;52.196;21.416;2023-02-13T00:42:19;101904.89;;;3.61;66.89
35307;BME280;21420;52.196;21.416;2023-02-13T00:44:49;101900.70;;;3.61;67.00
35307;BME280;21420;52.196;21.416;2023-02-13T00:47:17;101896.83;;;3.62;66.95
35307;BME280;21420;52.196;21.416;2023-02-13T00:49:44;101888.88;;;3.63;67.22
35307;BME280;21420;52.196;21.416;2023-02-13T00:52:11;101883.48;;;3.65;67.20
35307;BME280;21420;52.196;21.416;2023-02-13T00:54:38;101881.73;;;3.67;67.19
35307;BME280;21420;52.196;21.416;2023-02-13T00:57:05;101880.66;;;3.70;67.27
35307;BME280;21420;52.196;21.416;2023-02-13T00:59:33;101880.29;;;3.71;67.39
35307;BME280;21420;52.196;21.416;2023-02-13T01:02:01;101882.36;;;3.72;67.27
35307;BME280;21420;52.196;21.416;2023-02-13T01:04:30;101878.46;;;3.72;67.37
35307;BME280;21420;52.196;21.416;2023-02-13T01:06:57;101880.06;;;3.73;67.35
35307;BME280;21420;52.196;21.416;2023-02-13T01:09:24;101881.39;;;3.77;67.39
35307;BME280;21420;52.196;21.416;2023-02-13T01:11:51;101881.30;;;3.78;67.46
35307;BME280;21420;52.196;21.416;2023-02-13T01:14:18;101870.62;;;3.78;67.49
35307;BME280;21420;52.196;21.416;2023-02-13T01:16:46;101880.65;;;3.78;67.42
35307;BME280;21420;52.196;21.416;2023-02-13T01:19:13;101883.20;;;3.79;67.48
35307;BME280;21420;52.196;21.416;2023-02-13T01:21:41;101885.27;;;3.79;67.52
35307;BME280;21420;52.196;21.416;2023-02-13T01:24:09;101880.09;;;3.78;67.58
35307;BME280;21420;52.196;21.416;2023-02-13T01:26:36;101882.01;;;3.79;67.75
35307;BME280;21420;52.196;21.416;2023-02-13T01:29:02;101883.15;;;3.79;67.81
35307;BME280;21420;52.196;21.416;2023-02-13T01:31:30;101884.30;;;3.80;67.82
35307;BME280;21420;52.196;21.416;2023-02-13T01:33:58;101887.23;;;3.81;67.72
35307;BME280;21420;52.196;21.416;2023-02-13T01:36:26;101887.14;;;3.83;67.81
35307;BME280;21420;52.196;21.416;2023-02-13T01:38:57;101883.30;;;3.84;67.81
35307;BME280;21420;52.196;21.416;2023-02-13T01:41:26;101878.27;;;3.84;67.84
35307;BME280;21420;52.196;21.416;2023-02-13T01:43:56;101877.57;;;3.85;67.86
35307;BME280;21420;52.196;21.416;2023-02-13T01:48:53;101873.98;;;3.83;67.94
35307;BME280;21420;52.196;21.416;2023-02-13T01:51:28;101874.85;;;3.83;68.04
35307;BME280;21420;52.196;21.416;2023-02-13T01:54:00;101878.21;;;3.84;68.13
35307;BME280;21420;52.196;21.416;2023-02-13T01:56:39;101878.45;;;3.85;68.04
35307;BME280;21420;52.196;21.416;2023-02-13T01:59:20;101878.13;;;3.85;68.06
35307;BME280;21420;52.196;21.416;2023-02-13T02:01:49;101879.42;;;3.85;68.05
35307;BME280;21420;52.196;21.416;2023-02-13T02:04:30;101875.91;;;3.85;67.98
35307;BME280;21420;52.196;21.416;2023-02-13T02:07:14;101879.30;;;3.84;68.11
35307;BME280;21420;52.196;21.416;2023-02-13T02:09:45;101874.09;;;3.83;68.26
35307;BME280;21420;52.196;21.416;2023-02-13T02:12:31;101869.48;;;3.83;68.27
35307;BME280;21420;52.196;21.416;2023-02-13T02:15:00;101861.99;;;3.83;68.18
35307;BME280;21420;52.196;21.416;2023-02-13T02:17:30;101861.58;;;3.83;68.18
35307;BME280;21420;52.196;21.416;2023-02-13T02:34:39;101860.54;;;3.88;68.37
35307;BME280;21420;52.196;21.416;2023-02-13T02:48:34;101857.70;;;3.96;68.56
35307;BME280;21420;52.196;21.416;2023-02-13T02:57:14;101865.27;;;3.99;68.66
35307;BME280;21420;52.196;21.416;2023-02-13T02:59:45;101867.05;;;3.99;68.71
35307;BME280;21420;52.196;21.416;2023-02-13T03:02:31;101868.25;;;3.99;68.73
35307;BME280;21420;52.196;21.416;2023-02-13T03:05:24;101862.52;;;4.00;68.78
35307;BME280;21420;52.196;21.416;2023-02-13T03:08:13;101860.57;;;4.01;68.83
35307;BME280;21420;52.196;21.416;2023-02-13T03:10:40;101865.84;;;4.02;68.79
35307;BME280;21420;52.196;21.416;2023-02-13T03:13:37;101855.87;;;4.02;68.86
35307;BME280;21420;52.196;21.416;2023-02-13T03:22:30;101852.77;;;4.08;68.94
35307;BME280;21420;52.196;21.416;2023-02-13T03:27:46;101845.83;;;4.07;68.86
35307;BME280;21420;52.196;21.416;2023-02-13T03:30:56;101843.50;;;4.08;68.88
35307;BME280;21420;52.196;21.416;2023-02-13T03:33:35;101842.10;;;4.09;69.05
35307;BME280;21420;52.196;21.416;2023-02-13T03:41:43;101839.34;;;4.09;69.07
35307;BME280;21420;52.196;21.416;2023-02-13T03:44:17;101842.98;;;4.11;69.17
35307;BME280;21420;52.196;21.416;2023-02-13T03:46:47;101841.65;;;4.12;69.15
35307;BME280;21420;52.196;21.416;2023-02-13T03:49:21;101841.92;;;4.13;69.12
35307;BME280;21420;52.196;21.416;2023-02-13T03:52:28;101852.08;;;4.14;69.03
35307;BME280;21420;52.196;21.416;2023-02-13T03:55:01;101855.56;;;4.14;69.16
35307;BME280;21420;52.196;21.416;2023-02-13T03:57:50;101863.48;;;4.15;69.18
35307;BME280;21420;52.196;21.416;2023-02-13T04:00:42;101861.15;;;4.15;69.22
35307;BME280;21420;52.196;21.416;2023-02-13T04:05:54;101862.66;;;4.16;69.39
35307;BME280;21420;52.196;21.416;2023-02-13T04:08:23;101863.48;;;4.18;69.37
35307;BME280;21420;52.196;21.416;2023-02-13T04:11:09;101860.20;;;4.19;69.35
35307;BME280;21420;52.196;21.416;2023-02-13T04:13:56;101853.66;;;4.22;69.38
35307;BME280;21420;52.196;21.416;2023-02-13T04:16:34;101850.70;;;4.24;69.44
35307;BME280;21420;52.196;21.416;2023-02-13T04:19:03;101843.02;;;4.26;69.47
35307;BME280;21420;52.196;21.416;2023-02-13T04:21:33;101839.93;;;4.26;69.44
35307;BME280;21420;52.196;21.416;2023-02-13T04:24:00;101843.07;;;4.26;69.39
35307;BME280;21420;52.196;21.416;2023-02-13T04:26:33;101843.17;;;4.25;69.30
35307;BME280;21420;52.196;21.416;2023-02-13T04:29:01;101840.19;;;4.25;69.49
35307;BME280;21420;52.196;21.416;2023-02-13T04:31:27;101838.71;;;4.24;69.45
35307;BME280;21420;52.196;21.416;2023-02-13T04:33:54;101841.36;;;4.23;69.46
35307;BME280;21420;52.196;21.416;2023-02-13T04:36:21;101841.85;;;4.23;69.47
35307;BME280;21420;52.196;21.416;2023-02-13T04:38:49;101842.77;;;4.23;69.39
35307;BME280;21420;52.196;21.416;2023-02-13T04:41:16;101844.08;;;4.24;69.53
35307;BME280;21420;52.196;21.416;2023-02-13T04:43:43;101844.48;;;4.26;69.61
35307;BME280;21420;52.196;21.416;2023-02-13T04:46:10;101843.84;;;4.26;69.51
35307;BME280;21420;52.196;21.416;2023-02-13T04:48:37;101843.46;;;4.28;69.69
35307;BME280;21420;52.196;21.416;2023-02-13T04:51:05;101842.77;;;4.29;69.47
35307;BME280;21420;52.196;21.416;2023-02-13T04:53:32;101845.40;;;4.31;69.62
35307;BME280;21420;52.196;21.416;2023-02-13T04:55:59;101839.23;;;4.33;69.69
35307;BME280;21420;52.196;21.416;2023-02-13T04:58:26;101837.73;;;4.36;69.64
35307;BME280;21420;52.196;21.416;2023-02-13T05:00:53;101833.73;;;4.38;69.66
35307;BME280;21420;52.196;21.416;2023-02-13T05:03:20;101839.63;;;4.42;69.71
35307;BME280;21420;52.196;21.416;2023-02-13T05:05:48;101835.04;;;4.44;69.75
35307;BME280;21420;52.196;21.416;2023-02-13T05:08:15;101831.40;;;4.45;69.74
35307;BME280;21420;52.196;21.416;2023-02-13T05:10:42;101832.78;;;4.47;69.82
35307;BME280;21420;52.196;21.416;2023-02-13T05:13:09;101833.98;;;4.49;69.87
35307;BME280;21420;52.196;21.416;2023-02-13T05:15:36;101831.20;;;4.52;69.88
35307;BME280;21420;52.196;21.416;2023-02-13T05:18:03;101835.50;;;4.55;69.83
35307;BME280;21420;52.196;21.416;2023-02-13T05:20:30;101842.63;;;4.57;69.87
35307;BME280;21420;52.196;21.416;2023-02-13T05:22:58;101839.20;;;4.57;69.77
35307;BME280;21420;52.196;21.416;2023-02-13T05:25:43;101842.26;;;4.57;69.85
35307;BME280;21420;52.196;21.416;2023-02-13T05:28:10;101841.61;;;4.59;69.89
35307;BME280;21420;52.196;21.416;2023-02-13T05:30:56;101837.52;;;4.57;69.93
35307;BME280;21420;52.196;21.416;2023-02-13T05:33:24;101840.58;;;4.58;69.94
35307;BME280;21420;52.196;21.416;2023-02-13T05:35:51;101846.06;;;4.61;69.83
35307;BME280;21420;52.196;21.416;2023-02-13T05:38:18;101846.52;;;4.64;69.89
35307;BME280;21420;52.196;21.416;2023-02-13T05:40:45;101848.13;;;4.67;69.96
35307;BME280;21420;52.196;21.416;2023-02-13T05:43:12;101851.83;;;4.69;70.01
35307;BME280;21420;52.196;21.416;2023-02-13T05:45:39;101855.53;;;4.71;69.96
35307;BME280;21420;52.196;21.416;2023-02-13T05:48:06;101854.77;;;4.71;69.93
35307;BME280;21420;52.196;21.416;2023-02-13T05:50:33;101858.58;;;4.71;70.02
35307;BME280;21420;52.196;21.416;2023-02-13T05:53:00;101859.46;;;4.72;69.99
35307;BME280;21420;52.196;21.416;2023-02-13T05:55:26;101861.69;;;4.73;70.04
35307;BME280;21420;52.196;21.416;2023-02-13T05:57:57;101869.60;;;4.74;70.02
35307;BME280;21420;52.196;21.416;2023-02-13T06:00:24;101870.04;;;4.75;70.13
35307;BME280;21420;52.196;21.416;2023-02-13T06:02:51;101876.90;;;4.77;70.12
35307;BME280;21420;52.196;21.416;2023-02-13T06:05:18;101876.59;;;4.79;69.99
35307;BME280;21420;52.196;21.416;2023-02-13T06:07:45;101877.30;;;4.80;70.03
35307;BME280;21420;52.196;21.416;2023-02-13T06:10:12;101870.96;;;4.80;70.01
35307;BME280;21420;52.196;21.416;2023-02-13T06:12:38;101869.83;;;4.81;70.11
35307;BME280;21420;52.196;21.416;2023-02-13T06:15:06;101870.96;;;4.82;70.08
35307;BME280;21420;52.196;21.416;2023-02-13T06:17:33;101872.65;;;4.82;70.09
35307;BME280;21420;52.196;21.416;2023-02-13T06:20:00;101877.97;;;4.83;69.99
35307;BME280;21420;52.196;21.416;2023-02-13T06:22:27;101871.78;;;4.83;70.03
35307;BME280;21420;52.196;21.416;2023-02-13T06:24:54;101867.89;;;4.84;70.08
35307;BME280;21420;52.196;21.416;2023-02-13T06:27:20;101870.10;;;4.83;70.07
35307;BME280;21420;52.196;21.416;2023-02-13T06:29:47;101865.60;;;4.82;70.01
35307;BME280;21420;52.196;21.416;2023-02-13T06:32:14;101868.80;;;4.81;70.00
35307;BME280;21420;52.196;21.416;2023-02-13T06:34:41;101865.75;;;4.81;70.03
35307;BME280;21420;52.196;21.416;2023-02-13T06:37:08;101858.70;;;4.82;70.08
35307;BME280;21420;52.196;21.416;2023-02-13T06:39:35;101859.84;;;4.83;70.04
35307;BME280;21420;52.196;21.416;2023-02-13T06:42:02;101853.52;;;4.84;70.18
35307;BME280;21420;52.196;21.416;2023-02-13T06:44:29;101856.82;;;4.85;70.06
35307;BME280;21420;52.196;21.416;2023-02-13T06:46:56;101863.67;;;4.87;70.15
35307;BME280;21420;52.196;21.416;2023-02-13T06:49:23;101871.45;;;4.90;70.14
35307;BME280;21420;52.196;21.416;2023-02-13T06:51:50;101870.48;;;4.91;70.22
35307;BME280;21420;52.196;21.416;2023-02-13T06:54:17;101870.77;;;4.93;70.28
35307;BME280;21420;52.196;21.416;2023-02-13T06:56:44;101871.23;;;4.95;70.10
35307;BME280;21420;52.196;21.416;2023-02-13T06:59:11;101875.52;;;4.97;70.17
35307;BME280;21420;52.196;21.416;2023-02-13T07:01:38;101878.55;;;4.97;70.27
35307;BME280;21420;52.196;21.416;2023-02-13T07:04:05;101869.78;;;4.98;70.26
35307;BME280;21420;52.196;21.416;2023-02-13T07:06:32;101863.11;;;5.00;70.24
35307;BME280;21420;52.196;21.416;2023-02-13T07:09:02;101859.52;;;5.01;70.12
35307;BME280;21420;52.196;21.416;2023-02-13T07:11:29;101857.15;;;5.02;70.12
35307;BME280;21420;52.196;21.416;2023-02-13T07:13:56;101859.27;;;5.03;70.18
35307;BME280;21420;52.196;21.416;2023-02-13T07:16:24;101859.30;;;5.06;70.16
35307;BME280;21420;52.196;21.416;2023-02-13T07:18:51;101859.91;;;5.11;70.10
35307;BME280;21420;52.196;21.416;2023-02-13T07:21:18;101861.03;;;5.18;70.21
35307;BME280;21420;52.196;21.416;2023-02-13T07:23:45;101860.30;;;5.32;70.44
35307;BME280;21420;52.196;21.416;2023-02-13T07:26:12;101860.42;;;5.48;70.38
35307;BME280;21420;52.196;21.416;2023-02-13T07:28:38;101863.73;;;5.60;70.41
35307;BME280;21420;52.196;21.416;2023-02-13T07:31:06;101861.13;;;5.81;70.59
35307;BME280;21420;52.196;21.416;2023-02-13T07:33:34;101855.69;;;6.26;70.90
35307;BME280;21420;52.196;21.416;2023-02-13T07:36:01;101858.30;;;6.69;70.94
35307;BME280;21420;52.196;21.416;2023-02-13T07:38:31;101855.07;;;6.84;70.45
35307;BME280;21420;52.196;21.416;2023-02-13T07:40:59;101858.48;;;6.68;69.96
35307;BME280;21420;52.196;21.416;2023-02-13T07:43:27;101861.85;;;6.49;69.69
35307;BME280;21420;52.196;21.416;2023-02-13T07:45:58;101869.04;;;6.33;69.58
35307;BME280;21420;52.196;21.416;2023-02-13T07:48:26;101866.83;;;6.16;69.49
35307;BME280;21420;52.196;21.416;2023-02-13T07:51:02;101869.80;;;6.05;69.63
35307;BME280;21420;52.196;21.416;2023-02-13T07:53:30;101871.41;;;5.96;69.64
35307;BME280;21420;52.196;21.416;2023-02-13T07:55:57;101869.36;;;5.88;69.58
35307;BME280;21420;52.196;21.416;2023-02-13T07:58:25;101873.84;;;5.80;69.57
35307;BME280;21420;52.196;21.416;2023-02-13T08:00:52;101867.30;;;5.73;69.59
35307;BME280;21420;52.196;21.416;2023-02-13T08:03:19;101866.15;;;5.69;69.75
35307;BME280;21420;52.196;21.416;2023-02-13T08:05:46;101863.36;;;5.67;69.78
35307;BME280;21420;52.196;21.416;2023-02-13T08:08:15;101860.76;;;5.67;69.82
35307;BME280;21420;52.196;21.416;2023-02-13T08:10:42;101860.49;;;5.69;69.95
35307;BME280;21420;52.196;21.416;2023-02-13T08:13:28;101859.79;;;5.72;69.96
35307;BME280;21420;52.196;21.416;2023-02-13T08:15:55;101854.91;;;5.72;69.99
35307;BME280;21420;52.196;21.416;2023-02-13T08:18:23;101846.98;;;5.76;69.98
35307;BME280;21420;52.196;21.416;2023-02-13T08:20:50;101850.92;;;5.83;70.11
35307;BME280;21420;52.196;21.416;2023-02-13T08:23:17;101847.96;;;5.93;70.20
35307;BME280;21420;52.196;21.416;2023-02-13T08:25:44;101843.98;;;6.08;70.34
35307;BME280;21420;52.196;21.416;2023-02-13T08:28:13;101846.02;;;6.23;70.35
35307;BME280;21420;52.196;21.416;2023-02-13T08:30:41;101836.21;;;6.35;70.29
35307;BME280;21420;52.196;21.416;2023-02-13T08:33:10;101840.14;;;6.48;70.22
35307;BME280;21420;52.196;21.416;2023-02-13T08:35:37;101849.72;;;6.55;70.18
35307;BME280;21420;52.196;21.416;2023-02-13T08:38:04;101850.31;;;6.55;69.93
35307;BME280;21420;52.196;21.416;2023-02-13T08:40:31;101850.20;;;6.52;69.88
35307;BME280;21420;52.196;21.416;2023-02-13T08:43:02;101847.77;;;6.44;69.72
35307;BME280;21420;52.196;21.416;2023-02-13T08:45:34;101850.69;;;6.37;69.67
35307;BME280;21420;52.196;21.416;2023-02-13T08:48:01;101853.69;;;6.30;69.68
35307;BME280;21420;52.196;21.416;2023-02-13T08:50:30;101854.17;;;6.21;69.61
35307;BME280;21420;52.196;21.416;2023-02-13T08:52:57;101850.63;;;6.14;69.55
35307;BME280;21420;52.196;21.416;2023-02-13T08:55:26;101846.54;;;6.12;69.65
35307;BME280;21420;52.196;21.416;2023-02-13T08:57:54;101846.27;;;6.11;69.65
35307;BME280;21420;52.196;21.416;2023-02-13T09:00:21;101850.77;;;6.11;69.76
35307;BME280;21420;52.196;21.416;2023-02-13T09:02:48;101854.91;;;6.09;69.82
35307;BME280;21420;52.196;21.416;2023-02-13T09:05:15;101856.27;;;6.05;69.74
35307;BME280;21420;52.196;21.416;2023-02-13T09:07:43;101859.32;;;6.06;69.79
35307;BME280;21420;52.196;21.416;2023-02-13T09:10:10;101851.33;;;6.10;69.84
35307;BME280;21420;52.196;21.416;2023-02-13T09:12:37;101849.05;;;6.13;69.88
35307;BME280;21420;52.196;21.416;2023-02-13T09:15:04;101847.74;;;6.19;69.91
35307;BME280;21420;52.196;21.416;2023-02-13T09:17:31;101844.48;;;6.31;70.13
35307;BME280;21420;52.196;21.416;2023-02-13T09:19:58;101844.17;;;6.50;70.32
35307;BME280;21420;52.196;21.416;2023-02-13T09:22:25;101841.96;;;6.68;70.27
35307;BME280;21420;52.196;21.416;2023-02-13T09:24:53;101848.90;;;6.88;70.36
35307;BME280;21420;52.196;21.416;2023-02-13T09:27:21;101840.15;;;7.08;70.39
35307;BME280;21420;52.196;21.416;2023-02-13T09:29:48;101841.65;;;7.17;70.25
35307;BME280;21420;52.196;21.416;2023-02-13T09:32:16;101845.15;;;7.13;69.93
35307;BME280;21420;52.196;21.416;2023-02-13T09:34:43;101846.71;;;7.00;69.72
35307;BME280;21420;52.196;21.416;2023-02-13T09:37:10;101845.14;;;6.94;69.81
35307;BME280;21420;52.196;21.416;2023-02-13T09:39:37;101852.84;;;6.86;69.72
35307;BME280;21420;52.196;21.416;2023-02-13T09:42:20;101847.67;;;6.82;69.77
35307;BME280;21420;52.196;21.416;2023-02-13T09:44:54;101836.80;;;6.75;69.71
35307;BME280;21420;52.196;21.416;2023-02-13T09:47:33;101838.98;;;6.66;69.72
35307;BME280;21420;52.196;21.416;2023-02-13T09:50:10;101841.23;;;6.64;69.64
35307;BME280;21420;52.196;21.416;2023-02-13T09:52:43;101850.30;;;6.62;69.72
35307;BME280;21420;52.196;21.416;2023-02-13T09:55:18;101846.34;;;6.92;70.67
35307;BME280;21420;52.196;21.416;2023-02-13T09:58:04;101848.77;;;7.60;71.47
35307;BME280;21420;52.196;21.416;2023-02-13T10:00:39;101849.04;;;8.25;72.07
35307;BME280;21420;52.196;21.416;2023-02-13T10:03:20;101846.30;;;8.81;72.08
35307;BME280;21420;52.196;21.416;2023-02-13T10:06:05;101850.07;;;9.02;71.54
35307;BME280;21420;52.196;21.416;2023-02-13T10:16:58;101855.13;;;9.81;70.68
35307;BME280;21420;52.196;21.416;2023-02-13T10:19:40;101856.57;;;9.63;70.19
35307;BME280;21420;52.196;21.416;2023-02-13T10:22:16;101853.83;;;9.71;70.45
35307;BME280;21420;52.196;21.416;2023-02-13T10:24:51;101849.75;;;9.74;70.25
35307;BME280;21420;52.196;21.416;2023-02-13T10:27:23;101846.98;;;9.64;69.89
35307;BME280;21420;52.196;21.416;2023-02-13T10:29:58;101843.30;;;9.61;69.97
35307;BME280;21420;52.196;21.416;2023-02-13T10:32:57;101854.09;;;9.69;70.09
35307;BME280;21420;52.196;21.416;2023-02-13T10:35:52;101863.02;;;9.31;69.21
35307;BME280;21420;52.196;21.416;2023-02-13T10:38:23;101864.09;;;9.15;69.33
35307;BME280;21420;52.196;21.416;2023-02-13T10:43:55;101842.60;;;8.56;68.28
35307;BME280;21420;52.196;21.416;2023-02-13T10:54:53;101830.29;;;7.54;68.21
35307;BME280;21420;52.196;21.416;2023-02-13T10:57:36;101822.77;;;7.51;68.52
35307;BME280;21420;52.196;21.416;2023-02-13T11:00:10;101815.02;;;7.41;68.28
35307;BME280;21420;52.196;21.416;2023-02-13T11:02:39;101817.65;;;7.24;68.47
35307;BME280;21420;52.196;21.416;2023-02-13T11:05:34;101823.52;;;7.11;68.47
35307;BME280;21420;52.196;21.416;2023-02-13T11:08:04;101826.92;;;7.04;68.51
35307;BME280;21420;52.196;21.416;2023-02-13T11:10:40;101821.48;;;7.04;68.59
35307;BME280;21420;52.196;21.416;2023-02-13T11:13:19;101821.54;;;7.03;68.68
35307;BME280;21420;52.196;21.416;2023-02-13T11:16:05;101820.23;;;7.00;68.66
35307;BME280;21420;52.196;21.416;2023-02-13T11:18:35;101820.80;;;6.88;68.58
35307;BME280;21420;52.196;21.416;2023-02-13T11:21:17;101818.47;;;6.85;68.83
35307;BME280;21420;52.196;21.416;2023-02-13T11:23:51;101815.32;;;6.84;68.72
35307;BME280;21420;52.196;21.416;2023-02-13T11:26:32;101814.77;;;6.83;68.79
35307;BME280;21420;52.196;21.416;2023-02-13T11:29:04;101813.09;;;6.82;68.86
35307;BME280;21420;52.196;21.416;2023-02-13T11:31:33;101818.09;;;6.82;68.84
35307;BME280;21420;52.196;21.416;2023-02-13T11:36:52;101805.92;;;6.76;68.81
35307;BME280;21420;52.196;21.416;2023-02-13T11:39:21;101806.72;;;6.80;68.87
35307;BME280;21420;52.196;21.416;2023-02-13T11:41:49;101798.45;;;6.81;68.90
35307;BME280;21420;52.196;21.416;2023-02-13T11:44:27;101790.38;;;6.84;68.92
35307;BME280;21420;52.196;21.416;2023-02-13T11:46:57;101786.23;;;6.87;68.88
35307;BME280;21420;52.196;21.416;2023-02-13T11:49:29;101789.39;;;6.89;68.85
35307;BME280;21420;52.196;21.416;2023-02-13T11:52:02;101784.31;;;6.90;68.83
35307;BME280;21420;52.196;21.416;2023-02-13T11:54:33;101778.24;;;7.01;69.06
35307;BME280;21420;52.196;21.416;2023-02-13T11:57:22;101778.63;;;7.13;69.24
35307;BME280;21420;52.196;21.416;2023-02-13T11:59:51;101789.65;;;7.24;69.21
35307;BME280;21420;52.196;21.416;2023-02-13T12:02:20;101780.38;;;7.38;69.21
35307;BME280;21420;52.196;21.416;2023-02-13T12:04:50;101769.83;;;7.43;69.02
35307;BME280;21420;52.196;21.416;2023-02-13T12:07:30;101764.66;;;7.29;68.70
35307;BME280;21420;52.196;21.416;2023-02-13T12:10:02;101759.30;;;7.10;68.58
35307;BME280;21420;52.196;21.416;2023-02-13T12:12:36;101771.98;;;6.96;68.68
35307;BME280;21420;52.196;21.416;2023-02-13T12:15:16;101778.50;;;6.87;68.92
35307;BME280;21420;52.196;21.416;2023-02-13T12:17:46;101772.91;;;6.77;68.80
35307;BME280;21420;52.196;21.416;2023-02-13T12:20:16;101776.90;;;6.70;68.83
35307;BME280;21420;52.196;21.416;2023-02-13T12:22:58;101770.45;;;6.65;68.94
35307;BME280;21420;52.196;21.416;2023-02-13T12:31:23;101747.98;;;6.53;68.85
35307;BME280;21420;52.196;21.416;2023-02-13T12:37:22;101758.39;;;6.52;69.09
35307;BME280;21420;52.196;21.416;2023-02-13T12:43:10;101753.26;;;6.56;69.12
35307;BME280;21420;52.196;21.416;2023-02-13T12:53:52;101729.80;;;6.51;69.06
35307;BME280;21420;52.196;21.416;2023-02-13T12:56:39;101727.96;;;6.51;69.30
35307;BME280;21420;52.196;21.416;2023-02-13T13:02:01;101717.59;;;6.61;69.34
35307;BME280;21420;52.196;21.416;2023-02-13T13:05:06;101713.55;;;6.65;69.37
35307;BME280;21420;52.196;21.416;2023-02-13T13:18:37;101699.66;;;6.83;69.43
35307;BME280;21420;52.196;21.416;2023-02-13T13:21:16;101698.80;;;6.95;69.50
35307;BME280;21420;52.196;21.416;2023-02-13T13:24:06;101695.52;;;7.04;69.48
35307;BME280;21420;52.196;21.416;2023-02-13T13:26:42;101688.25;;;7.11;69.46
35307;BME280;21420;52.196;21.416;2023-02-13T13:29:22;101690.72;;;7.09;69.36
35307;BME280;21420;52.196;21.416;2023-02-13T13:31:56;101697.64;;;7.08;69.38
35307;BME280;21420;52.196;21.416;2023-02-13T13:34:26;101698.23;;;7.00;69.20
35307;BME280;21420;52.196;21.416;2023-02-13T13:37:26;101692.19;;;6.86;68.92
35307;BME280;21420;52.196;21.416;2023-02-13T13:42:41;101698.40;;;6.70;69.15
35307;BME280;21420;52.196;21.416;2023-02-13T13:50:35;101692.12;;;6.62;69.39
35307;BME280;21420;52.196;21.416;2023-02-13T14:03:53;101676.90;;;6.38;69.07
35307;BME280;21420;52.196;21.416;2023-02-13T14:09:53;101679.84;;;6.30;69.31
35307;BME280;21420;52.196;21.416;2023-02-13T14:14:51;101678.78;;;6.21;69.26
35307;BME280;21420;52.196;21.416;2023-02-13T14:25:40;101660.63;;;6.10;69.37
35307;BME280;21420;52.196;21.416;2023-02-13T14:28:22;101651.22;;;6.08;69.32
35307;BME280;21420;52.196;21.416;2023-02-13T14:30:51;101653.50;;;6.07;69.45
35307;BME280;21420;52.196;21.416;2023-02-13T14:33:30;101654.86;;;6.04;69.39
35307;BME280;21420;52.196;21.416;2023-02-13T14:36:06;101661.45;;;6.04;69.52
35307;BME280;21420;52.196;21.416;2023-02-13T14:38:35;101664.70;;;6.05;69.60
35307;BME280;21420;52.196;21.416;2023-02-13T14:41:02;101652.96;;;6.07;69.53
35307;BME280;21420;52.196;21.416;2023-02-13T14:43:35;101664.13;;;6.05;69.39
35307;BME280;21420;52.196;21.416;2023-02-13T14:46:12;101663.68;;;6.01;69.44
35307;BME280;21420;52.196;21.416;2023-02-13T14:49:00;101666.20;;;5.98;69.51
35307;BME280;21420;52.196;21.416;2023-02-13T14:51:38;101662.88;;;5.94;69.52
35307;BME280;21420;52.196;21.416;2023-02-13T14:56:54;101659.20;;;5.89;69.58
35307;BME280;21420;52.196;21.416;2023-02-13T14:59:28;101656.92;;;5.85;69.53
35307;BME280;21420;52.196;21.416;2023-02-13T15:02:02;101667.30;;;5.82;69.51
35307;BME280;21420;52.196;21.416;2023-02-13T15:04:40;101662.80;;;5.80;69.58
35307;BME280;21420;52.196;21.416;2023-02-13T15:07:15;101655.78;;;5.76;69.63
35307;BME280;21420;52.196;21.416;2023-02-13T15:09:49;101658.57;;;5.74;69.68
35307;BME280;21420;52.196;21.416;2023-02-13T15:12:35;101650.48;;;5.72;69.60
35307;BME280;21420;52.196;21.416;2023-02-13T15:15:23;101653.50;;;5.69;69.55
35307;BME280;21420;52.196;21.416;2023-02-13T15:17:57;101657.36;;;5.68;69.71
35307;BME280;21420;52.196;21.416;2023-02-13T15:20:27;101647.48;;;5.70;69.79
35307;BME280;21420;52.196;21.416;2023-02-13T15:22:55;101629.27;;;5.70;69.77
35307;BME280;21420;52.196;21.416;2023-02-13T15:25:35;101618.28;;;5.68;69.71
35307;BME280;21420;52.196;21.416;2023-02-13T15:28:18;101611.81;;;5.67;69.79
35307;BME280;21420;52.196;21.416;2023-02-13T15:30:59;101607.58;;;5.66;69.69
35307;BME280;21420;52.196;21.416;2023-02-13T15:33:44;101608.72;;;5.64;69.79
35307;BME280;21420;52.196;21.416;2023-02-13T15:36:17;101624.91;;;5.66;69.91
35307;BME280;21420;52.196;21.416;2023-02-13T15:38:45;101631.11;;;5.64;70.06